sensor_id;sensor_type;location;lat;lon;timestamp;P1;durP1;ratioP1;P2;durP2;ratioP2
1725;SDS011;41776;48.260;8.928;2024-01-16T00:01:04;6.93;;;2.10;;
1725;SDS011;41776;48.260;8.928;2024-01-16T00:03:32;5.13;;;1.80;;
1725;SDS011;41776;48.260;8.928;2024-01-16T00:05:58;3.47;;;1.80;;
1725;SDS011;41776;48.260;8.928;2024-01-16T00:08:27;4.03;;;1.70;;
1725;SDS011;41776;48.260;8.928;2024-01-16T00:10:53;6.27;;;2.20;;
1725;SDS011;41776;48.260;8.928;2024-01-16T00:13:20;3.87;;;2.07;;
1725;SDS011;41776;48.260;8.928;2024-01-16T00:15:46;3.20;;;2.03;;
1725;SDS011;41776;48.260;8.928;2024-01-16T00:18:14;8.50;;;2.33;;
1725;SDS011;41776;48.260;8.928;2024-01-16T00:20:42;3.97;;;1.90;;
1725;SDS011;41776;48.260;8.928;2024-01-16T00:23:09;6.83;;;2.10;;
1725;SDS011;41776;48.260;8.928;2024-01-16T00:25:35;5.37;;;2.23;;
1725;SDS011;41776;48.260;8.928;2024-01-16T00:28:02;5.33;;;2.07;;
1725;SDS011;41776;48.260;8.928;2024-01-16T00:30:29;4.87;;;2.03;;
1725;SDS011;41776;48.260;8.928;2024-01-16T00:32:55;4.63;;;2.10;;
1725;SDS011;41776;48.260;8.928;2024-01-16T00:35:22;4.23;;;2.10;;
1725;SDS011;41776;48.260;8.928;2024-01-16T00:37:49;5.30;;;1.80;;
1725;SDS011;41776;48.260;8.928;2024-01-16T00:40:16;3.83;;;2.10;;
1725;SDS011;41776;48.260;8.928;2024-01-16T00:42:42;3.67;;;1.90;;
1725;SDS011;41776;48.260;8.928;2024-01-16T00:45:09;4.23;;;2.20;;
1725;SDS011;41776;48.260;8.928;2024-01-16T00:47:35;3.43;;;1.97;;
1725;SDS011;41776;48.260;8.928;2024-01-16T00:50:03;6.43;;;2.30;;
1725;SDS011;41776;48.260;8.928;2024-01-16T00:52:30;5.07;;;2.33;;
1725;SDS011;41776;48.260;8.928;2024-01-16T00:54:58;6.53;;;2.57;;
1725;SDS011;41776;48.260;8.928;2024-01-16T00:57:24;4.77;;;2.20;;
1725;SDS011;41776;48.260;8.928;2024-01-16T00:59:51;5.87;;;2.27;;
1725;SDS011;41776;48.260;8.928;2024-01-16T01:02:17;4.57;;;2.13;;
1725;SDS011;41776;48.260;8.928;2024-01-16T01:04:44;2.97;;;1.77;;
1725;SDS011;41776;48.260;8.928;2024-01-16T01:07:12;6.77;;;2.07;;
1725;SDS011;41776;48.260;8.928;2024-01-16T01:09:39;3.80;;;2.07;;
1725;SDS011;41776;48.260;8.928;2024-01-16T01:12:07;3.80;;;2.30;;
1725;SDS011;41776;48.260;8.928;2024-01-16T01:14:34;3.17;;;2.10;;
1725;SDS011;41776;48.260;8.928;2024-01-16T01:17:00;5.63;;;2.13;;
1725;SDS011;41776;48.260;8.928;2024-01-16T01:19:27;4.67;;;2.50;;
1725;SDS011;41776;48.260;8.928;2024-01-16T01:21:53;4.50;;;2.33;;
1725;SDS011;41776;48.260;8.928;2024-01-16T01:24:20;3.83;;;1.97;;
1725;SDS011;41776;48.260;8.928;2024-01-16T01:26:46;5.73;;;2.03;;
1725;SDS011;41776;48.260;8.928;2024-01-16T01:29:14;8.33;;;2.13;;
1725;SDS011;41776;48.260;8.928;2024-01-16T01:31:40;5.07;;;2.40;;
1725;SDS011;41776;48.260;8.928;2024-01-16T01:34:06;7.33;;;2.17;;
1725;SDS011;41776;48.260;8.928;2024-01-16T01:36:33;3.93;;;2.10;;
1725;SDS011;41776;48.260;8.928;2024-01-16T01:39:00;6.13;;;2.00;;
1725;SDS011;41776;48.260;8.928;2024-01-16T01:41:28;6.53;;;2.47;;
1725;SDS011;41776;48.260;8.928;2024-01-16T01:43:54;3.07;;;2.03;;
1725;SDS011;41776;48.260;8.928;2024-01-16T01:46:22;4.40;;;2.20;;
1725;SDS011;41776;48.260;8.928;2024-01-16T01:48:49;6.40;;;2.40;;
1725;SDS011;41776;48.260;8.928;2024-01-16T01:51:17;5.43;;;2.10;;
1725;SDS011;41776;48.260;8.928;2024-01-16T01:53:45;7.20;;;2.17;;
1725;SDS011;41776;48.260;8.928;2024-01-16T01:56:14;4.37;;;2.20;;
1725;SDS011;41776;48.260;8.928;2024-01-16T01:58:43;4.80;;;2.00;;
1725;SDS011;41776;48.260;8.928;2024-01-16T02:01:10;2.67;;;1.80;;
1725;SDS011;41776;48.260;8.928;2024-01-16T02:03:41;3.30;;;2.00;;
1725;SDS011;41776;48.260;8.928;2024-01-16T02:06:09;4.27;;;1.70;;
1725;SDS011;41776;48.260;8.928;2024-01-16T02:08:37;4.87;;;2.30;;
1725;SDS011;41776;48.260;8.928;2024-01-16T02:11:03;4.40;;;2.30;;
1725;SDS011;41776;48.260;8.928;2024-01-16T02:13:30;3.90;;;2.37;;
1725;SDS011;41776;48.260;8.928;2024-01-16T02:15:57;5.23;;;2.27;;
1725;SDS011;41776;48.260;8.928;2024-01-16T02:18:24;2.80;;;1.97;;
1725;SDS011;41776;48.260;8.928;2024-01-16T02:20:51;5.30;;;2.40;;
1725;SDS011;41776;48.260;8.928;2024-01-16T02:23:24;3.37;;;2.27;;
1725;SDS011;41776;48.260;8.928;2024-01-16T02:25:52;5.50;;;2.00;;
1725;SDS011;41776;48.260;8.928;2024-01-16T02:28:19;4.70;;;2.23;;
1725;SDS011;41776;48.260;8.928;2024-01-16T02:30:46;5.33;;;2.10;;
1725;SDS011;41776;48.260;8.928;2024-01-16T02:33:12;2.73;;;1.93;;
1725;SDS011;41776;48.260;8.928;2024-01-16T02:35:39;4.33;;;1.87;;
1725;SDS011;41776;48.260;8.928;2024-01-16T02:38:05;4.50;;;2.20;;
1725;SDS011;41776;48.260;8.928;2024-01-16T02:40:33;3.23;;;1.80;;
1725;SDS011;41776;48.260;8.928;2024-01-16T02:43:00;2.13;;;1.60;;
1725;SDS011;41776;48.260;8.928;2024-01-16T02:45:26;3.17;;;2.00;;
1725;SDS011;41776;48.260;8.928;2024-01-16T02:47:53;6.67;;;2.13;;
1725;SDS011;41776;48.260;8.928;2024-01-16T02:50:20;2.87;;;2.17;;
1725;SDS011;41776;48.260;8.928;2024-01-16T02:52:46;5.80;;;2.17;;
1725;SDS011;41776;48.260;8.928;2024-01-16T02:55:13;2.93;;;2.07;;
1725;SDS011;41776;48.260;8.928;2024-01-16T02:57:41;3.80;;;1.93;;
1725;SDS011;41776;48.260;8.928;2024-01-16T03:00:08;2.40;;;1.77;;
1725;SDS011;41776;48.260;8.928;2024-01-16T03:02:34;3.40;;;2.10;;
1725;SDS011;41776;48.260;8.928;2024-01-16T03:05:02;2.93;;;2.10;;
1725;SDS011;41776;48.260;8.928;2024-01-16T03:07:30;6.33;;;2.23;;
1725;SDS011;41776;48.260;8.928;2024-01-16T03:09:56;3.00;;;2.20;;
1725;SDS011;41776;48.260;8.928;2024-01-16T03:12:23;2.73;;;2.03;;
1725;SDS011;41776;48.260;8.928;2024-01-16T03:14:50;5.23;;;2.17;;
1725;SDS011;41776;48.260;8.928;2024-01-16T03:17:18;3.17;;;2.00;;
1725;SDS011;41776;48.260;8.928;2024-01-16T03:19:45;5.13;;;2.40;;
1725;SDS011;41776;48.260;8.928;2024-01-16T03:22:11;3.83;;;2.13;;
1725;SDS011;41776;48.260;8.928;2024-01-16T03:24:38;3.10;;;2.00;;
1725;SDS011;41776;48.260;8.928;2024-01-16T03:27:04;3.90;;;2.47;;
1725;SDS011;41776;48.260;8.928;2024-01-16T03:29:30;2.97;;;1.93;;
1725;SDS011;41776;48.260;8.928;2024-01-16T03:32:00;7.13;;;2.43;;
1725;SDS011;41776;48.260;8.928;2024-01-16T03:34:27;5.53;;;2.23;;
1725;SDS011;41776;48.260;8.928;2024-01-16T03:36:53;4.20;;;2.30;;
1725;SDS011;41776;48.260;8.928;2024-01-16T03:39:20;5.07;;;2.03;;
1725;SDS011;41776;48.260;8.928;2024-01-16T03:41:47;3.27;;;2.10;;
1725;SDS011;41776;48.260;8.928;2024-01-16T03:44:14;3.30;;;2.10;;
1725;SDS011;41776;48.260;8.928;2024-01-16T03:46:40;6.20;;;2.67;;
1725;SDS011;41776;48.260;8.928;2024-01-16T03:49:08;3.80;;;2.13;;
1725;SDS011;41776;48.260;8.928;2024-01-16T03:51:35;7.40;;;2.30;;
1725;SDS011;41776;48.260;8.928;2024-01-16T03:54:01;4.10;;;2.23;;
1725;SDS011;41776;48.260;8.928;2024-01-16T03:56:28;4.53;;;2.03;;
1725;SDS011;41776;48.260;8.928;2024-01-16T03:58:54;4.23;;;1.97;;
1725;SDS011;41776;48.260;8.928;2024-01-16T04:01:29;4.20;;;2.47;;
1725;SDS011;41776;48.260;8.928;2024-01-16T04:03:56;6.07;;;2.40;;
1725;SDS011;41776;48.260;8.928;2024-01-16T04:06:24;3.60;;;2.13;;
1725;SDS011;41776;48.260;8.928;2024-01-16T04:08:51;5.77;;;3.10;;
1725;SDS011;41776;48.260;8.928;2024-01-16T04:11:17;6.83;;;2.73;;
1725;SDS011;41776;48.260;8.928;2024-01-16T04:13:44;4.97;;;2.50;;
1725;SDS011;41776;48.260;8.928;2024-01-16T04:16:11;5.97;;;2.20;;
1725;SDS011;41776;48.260;8.928;2024-01-16T04:18:38;8.13;;;2.43;;
1725;SDS011;41776;48.260;8.928;2024-01-16T04:21:06;3.23;;;2.10;;
1725;SDS011;41776;48.260;8.928;2024-01-16T04:23:37;5.27;;;2.73;;
1725;SDS011;41776;48.260;8.928;2024-01-16T04:26:03;4.47;;;2.20;;
1725;SDS011;41776;48.260;8.928;2024-01-16T04:28:32;4.17;;;2.40;;
1725;SDS011;41776;48.260;8.928;2024-01-16T04:31:01;5.07;;;2.30;;
1725;SDS011;41776;48.260;8.928;2024-01-16T04:33:27;6.07;;;2.40;;
1725;SDS011;41776;48.260;8.928;2024-01-16T04:35:59;3.87;;;2.13;;
1725;SDS011;41776;48.260;8.928;2024-01-16T04:38:26;5.93;;;2.30;;
1725;SDS011;41776;48.260;8.928;2024-01-16T04:41:01;3.03;;;2.10;;
1725;SDS011;41776;48.260;8.928;2024-01-16T04:43:33;5.43;;;2.23;;
1725;SDS011;41776;48.260;8.928;2024-01-16T04:46:02;5.73;;;2.60;;
1725;SDS011;41776;48.260;8.928;2024-01-16T04:48:30;3.70;;;2.10;;
1725;SDS011;41776;48.260;8.928;2024-01-16T04:50:56;5.20;;;2.47;;
1725;SDS011;41776;48.260;8.928;2024-01-16T04:53:25;4.73;;;2.30;;
1725;SDS011;41776;48.260;8.928;2024-01-16T04:55:54;4.37;;;2.30;;
1725;SDS011;41776;48.260;8.928;2024-01-16T04:58:27;7.20;;;2.20;;
1725;SDS011;41776;48.260;8.928;2024-01-16T05:00:54;4.70;;;2.00;;
1725;SDS011;41776;48.260;8.928;2024-01-16T05:03:23;5.73;;;2.20;;
1725;SDS011;41776;48.260;8.928;2024-01-16T05:05:56;4.40;;;2.63;;
1725;SDS011;41776;48.260;8.928;2024-01-16T05:08:27;4.77;;;2.17;;
1725;SDS011;41776;48.260;8.928;2024-01-16T05:10:55;2.70;;;2.23;;
1725;SDS011;41776;48.260;8.928;2024-01-16T05:13:30;6.13;;;3.10;;
1725;SDS011;41776;48.260;8.928;2024-01-16T05:16:03;5.60;;;2.17;;
1725;SDS011;41776;48.260;8.928;2024-01-16T05:18:46;6.07;;;2.30;;
1725;SDS011;41776;48.260;8.928;2024-01-16T05:21:17;5.07;;;2.40;;
1725;SDS011;41776;48.260;8.928;2024-01-16T05:23:48;8.17;;;2.60;;
1725;SDS011;41776;48.260;8.928;2024-01-16T05:26:14;6.47;;;2.90;;
1725;SDS011;41776;48.260;8.928;2024-01-16T05:28:42;3.60;;;2.10;;
1725;SDS011;41776;48.260;8.928;2024-01-16T05:31:15;4.03;;;2.40;;
1725;SDS011;41776;48.260;8.928;2024-01-16T05:33:53;9.93;;;2.67;;
1725;SDS011;41776;48.260;8.928;2024-01-16T05:36:19;9.70;;;3.07;;
1725;SDS011;41776;48.260;8.928;2024-01-16T05:38:50;5.00;;;2.33;;
1725;SDS011;41776;48.260;8.928;2024-01-16T05:41:18;6.53;;;2.60;;
1725;SDS011;41776;48.260;8.928;2024-01-16T05:43:53;6.50;;;2.70;;
1725;SDS011;41776;48.260;8.928;2024-01-16T05:46:20;2.50;;;2.07;;
1725;SDS011;41776;48.260;8.928;2024-01-16T05:48:46;10.33;;;2.47;;
1725;SDS011;41776;48.260;8.928;2024-01-16T05:51:13;7.70;;;2.70;;
1725;SDS011;41776;48.260;8.928;2024-01-16T05:53:43;14.63;;;2.70;;
1725;SDS011;41776;48.260;8.928;2024-01-16T05:56:10;5.03;;;2.57;;
1725;SDS011;41776;48.260;8.928;2024-01-16T05:58:36;6.40;;;2.60;;
1725;SDS011;41776;48.260;8.928;2024-01-16T06:01:05;6.80;;;2.77;;
1725;SDS011;41776;48.260;8.928;2024-01-16T06:03:31;7.53;;;2.80;;
1725;SDS011;41776;48.260;8.928;2024-01-16T06:06:00;3.20;;;2.10;;
1725;SDS011;41776;48.260;8.928;2024-01-16T06:08:29;9.40;;;2.77;;
1725;SDS011;41776;48.260;8.928;2024-01-16T06:11:04;9.57;;;2.90;;
1725;SDS011;41776;48.260;8.928;2024-01-16T06:13:30;5.20;;;2.20;;
1725;SDS011;41776;48.260;8.928;2024-01-16T06:15:58;3.80;;;2.47;;
1725;SDS011;41776;48.260;8.928;2024-01-16T06:18:29;2.93;;;2.13;;
1725;SDS011;41776;48.260;8.928;2024-01-16T06:20:56;6.33;;;2.73;;
1725;SDS011;41776;48.260;8.928;2024-01-16T06:23:23;4.80;;;2.80;;
1725;SDS011;41776;48.260;8.928;2024-01-16T06:25:49;4.63;;;2.30;;
1725;SDS011;41776;48.260;8.928;2024-01-16T06:28:16;5.17;;;2.53;;
1725;SDS011;41776;48.260;8.928;2024-01-16T06:30:45;7.33;;;2.97;;
1725;SDS011;41776;48.260;8.928;2024-01-16T06:33:12;4.60;;;2.80;;
1725;SDS011;41776;48.260;8.928;2024-01-16T06:35:40;3.67;;;2.23;;
1725;SDS011;41776;48.260;8.928;2024-01-16T06:38:06;6.27;;;2.33;;
1725;SDS011;41776;48.260;8.928;2024-01-16T06:40:33;4.93;;;2.53;;
1725;SDS011;41776;48.260;8.928;2024-01-16T06:43:00;3.97;;;2.50;;
1725;SDS011;41776;48.260;8.928;2024-01-16T06:45:30;9.13;;;2.80;;
1725;SDS011;41776;48.260;8.928;2024-01-16T06:47:57;6.17;;;2.33;;
1725;SDS011;41776;48.260;8.928;2024-01-16T06:50:23;4.10;;;2.30;;
1725;SDS011;41776;48.260;8.928;2024-01-16T06:52:51;6.77;;;3.23;;
1725;SDS011;41776;48.260;8.928;2024-01-16T06:55:18;8.23;;;3.40;;
1725;SDS011;41776;48.260;8.928;2024-01-16T06:57:45;6.77;;;3.50;;
1725;SDS011;41776;48.260;8.928;2024-01-16T07:00:14;6.97;;;3.30;;
1725;SDS011;41776;48.260;8.928;2024-01-16T07:02:42;9.03;;;3.07;;
1725;SDS011;41776;48.260;8.928;2024-01-16T07:05:11;5.30;;;3.10;;
1725;SDS011;41776;48.260;8.928;2024-01-16T07:07:38;8.43;;;2.90;;
1725;SDS011;41776;48.260;8.928;2024-01-16T07:10:06;5.60;;;3.10;;
1725;SDS011;41776;48.260;8.928;2024-01-16T07:12:38;9.33;;;3.17;;
1725;SDS011;41776;48.260;8.928;2024-01-16T07:15:05;7.30;;;3.73;;
1725;SDS011;41776;48.260;8.928;2024-01-16T07:17:32;6.57;;;3.40;;
1725;SDS011;41776;48.260;8.928;2024-01-16T07:19:59;5.53;;;3.00;;
1725;SDS011;41776;48.260;8.928;2024-01-16T07:22:25;14.70;;;3.27;;
1725;SDS011;41776;48.260;8.928;2024-01-16T07:24:52;10.03;;;3.27;;
1725;SDS011;41776;48.260;8.928;2024-01-16T07:27:20;7.53;;;3.47;;
1725;SDS011;41776;48.260;8.928;2024-01-16T07:29:47;5.40;;;2.93;;
1725;SDS011;41776;48.260;8.928;2024-01-16T07:32:13;6.17;;;3.00;;
1725;SDS011;41776;48.260;8.928;2024-01-16T07:34:39;7.63;;;3.20;;
1725;SDS011;41776;48.260;8.928;2024-01-16T07:37:06;7.87;;;3.17;;
1725;SDS011;41776;48.260;8.928;2024-01-16T07:39:33;7.67;;;3.70;;
1725;SDS011;41776;48.260;8.928;2024-01-16T07:41:59;7.50;;;2.90;;
1725;SDS011;41776;48.260;8.928;2024-01-16T07:44:27;9.80;;;3.33;;
1725;SDS011;41776;48.260;8.928;2024-01-16T07:46:54;9.43;;;3.13;;
1725;SDS011;41776;48.260;8.928;2024-01-16T07:49:20;11.43;;;3.77;;
1725;SDS011;41776;48.260;8.928;2024-01-16T07:51:48;6.40;;;3.00;;
1725;SDS011;41776;48.260;8.928;2024-01-16T07:54:15;5.17;;;2.80;;
1725;SDS011;41776;48.260;8.928;2024-01-16T07:56:42;7.40;;;3.53;;
1725;SDS011;41776;48.260;8.928;2024-01-16T07:59:08;5.87;;;3.73;;
1725;SDS011;41776;48.260;8.928;2024-01-16T08:01:36;6.27;;;3.63;;
1725;SDS011;41776;48.260;8.928;2024-01-16T08:04:03;11.50;;;4.13;;
1725;SDS011;41776;48.260;8.928;2024-01-16T08:06:30;7.23;;;3.33;;
1725;SDS011;41776;48.260;8.928;2024-01-16T08:08:56;7.33;;;3.60;;
1725;SDS011;41776;48.260;8.928;2024-01-16T08:11:23;9.30;;;3.23;;
1725;SDS011;41776;48.260;8.928;2024-01-16T08:13:52;5.90;;;2.90;;
1725;SDS011;41776;48.260;8.928;2024-01-16T08:16:20;6.47;;;3.13;;
1725;SDS011;41776;48.260;8.928;2024-01-16T08:18:52;6.40;;;3.40;;
1725;SDS011;41776;48.260;8.928;2024-01-16T08:21:19;6.03;;;3.20;;
1725;SDS011;41776;48.260;8.928;2024-01-16T08:23:44;5.87;;;3.03;;
1725;SDS011;41776;48.260;8.928;2024-01-16T08:26:11;7.90;;;3.30;;
1725;SDS011;41776;48.260;8.928;2024-01-16T08:28:37;6.03;;;3.50;;
1725;SDS011;41776;48.260;8.928;2024-01-16T08:31:04;7.30;;;2.90;;
1725;SDS011;41776;48.260;8.928;2024-01-16T08:33:31;4.83;;;2.50;;
1725;SDS011;41776;48.260;8.928;2024-01-16T08:35:59;6.40;;;3.27;;
1725;SDS011;41776;48.260;8.928;2024-01-16T08:38:25;5.27;;;2.90;;
1725;SDS011;41776;48.260;8.928;2024-01-16T08:40:52;5.67;;;3.13;;
1725;SDS011;41776;48.260;8.928;2024-01-16T08:43:19;6.97;;;3.03;;
1725;SDS011;41776;48.260;8.928;2024-01-16T08:45:45;6.33;;;3.20;;
1725;SDS011;41776;48.260;8.928;2024-01-16T08:48:13;6.33;;;2.60;;
1725;SDS011;41776;48.260;8.928;2024-01-16T08:50:40;4.73;;;2.50;;
1725;SDS011;41776;48.260;8.928;2024-01-16T08:53:08;5.77;;;2.67;;
1725;SDS011;41776;48.260;8.928;2024-01-16T08:55:37;6.47;;;2.73;;
1725;SDS011;41776;48.260;8.928;2024-01-16T08:58:04;6.03;;;2.30;;
1725;SDS011;41776;48.260;8.928;2024-01-16T09:00:30;8.17;;;2.87;;
1725;SDS011;41776;48.260;8.928;2024-01-16T09:02:58;5.63;;;3.03;;
1725;SDS011;41776;48.260;8.928;2024-01-16T09:05:24;5.70;;;2.57;;
1725;SDS011;41776;48.260;8.928;2024-01-16T09:07:51;6.23;;;2.63;;
1725;SDS011;41776;48.260;8.928;2024-01-16T09:10:19;5.60;;;2.80;;
1725;SDS011;41776;48.260;8.928;2024-01-16T09:12:46;5.57;;;3.03;;
1725;SDS011;41776;48.260;8.928;2024-01-16T09:15:13;5.53;;;3.03;;
1725;SDS011;41776;48.260;8.928;2024-01-16T09:17:40;5.33;;;2.90;;
1725;SDS011;41776;48.260;8.928;2024-01-16T09:20:09;5.67;;;2.63;;
1725;SDS011;41776;48.260;8.928;2024-01-16T09:22:42;4.37;;;2.40;;
1725;SDS011;41776;48.260;8.928;2024-01-16T09:25:11;5.67;;;2.90;;
1725;SDS011;41776;48.260;8.928;2024-01-16T09:27:43;6.73;;;2.83;;
1725;SDS011;41776;48.260;8.928;2024-01-16T09:30:11;4.93;;;2.47;;
1725;SDS011;41776;48.260;8.928;2024-01-16T09:32:40;5.33;;;2.73;;
1725;SDS011;41776;48.260;8.928;2024-01-16T09:35:08;4.83;;;2.83;;
1725;SDS011;41776;48.260;8.928;2024-01-16T09:37:35;10.53;;;3.00;;
1725;SDS011;41776;48.260;8.928;2024-01-16T09:40:03;6.43;;;2.90;;
1725;SDS011;41776;48.260;8.928;2024-01-16T09:42:31;4.37;;;2.30;;
1725;SDS011;41776;48.260;8.928;2024-01-16T09:45:01;7.00;;;2.57;;
1725;SDS011;41776;48.260;8.928;2024-01-16T09:47:31;5.57;;;2.43;;
1725;SDS011;41776;48.260;8.928;2024-01-16T09:49:58;3.97;;;2.30;;
1725;SDS011;41776;48.260;8.928;2024-01-16T09:52:26;3.43;;;2.60;;
1725;SDS011;41776;48.260;8.928;2024-01-16T09:54:53;5.07;;;2.53;;
1725;SDS011;41776;48.260;8.928;2024-01-16T09:57:19;5.10;;;2.17;;
1725;SDS011;41776;48.260;8.928;2024-01-16T09:59:49;4.37;;;2.03;;
1725;SDS011;41776;48.260;8.928;2024-01-16T10:02:18;5.10;;;2.00;;
1725;SDS011;41776;48.260;8.928;2024-01-16T10:04:46;4.53;;;2.20;;
1725;SDS011;41776;48.260;8.928;2024-01-16T10:07:12;4.07;;;2.00;;
1725;SDS011;41776;48.260;8.928;2024-01-16T10:09:42;3.60;;;1.83;;
1725;SDS011;41776;48.260;8.928;2024-01-16T10:12:09;3.77;;;1.90;;
1725;SDS011;41776;48.260;8.928;2024-01-16T10:14:36;6.60;;;2.07;;
1725;SDS011;41776;48.260;8.928;2024-01-16T10:17:04;3.37;;;1.90;;
1725;SDS011;41776;48.260;8.928;2024-01-16T10:19:37;4.93;;;1.90;;
1725;SDS011;41776;48.260;8.928;2024-01-16T10:22:14;2.97;;;1.80;;
1725;SDS011;41776;48.260;8.928;2024-01-16T10:24:46;4.00;;;2.10;;
1725;SDS011;41776;48.260;8.928;2024-01-16T10:27:14;4.57;;;1.80;;
1725;SDS011;41776;48.260;8.928;2024-01-16T10:29:43;3.47;;;1.70;;
1725;SDS011;41776;48.260;8.928;2024-01-16T10:32:26;5.90;;;2.10;;
1725;SDS011;41776;48.260;8.928;2024-01-16T10:35:02;3.90;;;2.47;;
1725;SDS011;41776;48.260;8.928;2024-01-16T10:37:30;4.63;;;2.53;;
1725;SDS011;41776;48.260;8.928;2024-01-16T10:39:57;5.60;;;2.30;;
1725;SDS011;41776;48.260;8.928;2024-01-16T10:42:24;4.30;;;2.20;;
1725;SDS011;41776;48.260;8.928;2024-01-16T10:44:53;7.10;;;3.40;;
1725;SDS011;41776;48.260;8.928;2024-01-16T10:47:22;6.10;;;3.27;;
1725;SDS011;41776;48.260;8.928;2024-01-16T10:49:48;6.33;;;2.77;;
1725;SDS011;41776;48.260;8.928;2024-01-16T10:52:17;7.23;;;3.13;;
1725;SDS011;41776;48.260;8.928;2024-01-16T10:54:44;4.10;;;2.20;;
1725;SDS011;41776;48.260;8.928;2024-01-16T10:57:14;7.30;;;2.90;;
1725;SDS011;41776;48.260;8.928;2024-01-16T10:59:42;4.17;;;2.10;;
1725;SDS011;41776;48.260;8.928;2024-01-16T11:02:16;5.87;;;2.20;;
1725;SDS011;41776;48.260;8.928;2024-01-16T11:04:49;5.27;;;2.57;;
1725;SDS011;41776;48.260;8.928;2024-01-16T11:07:20;3.90;;;1.87;;
1725;SDS011;41776;48.260;8.928;2024-01-16T11:09:48;6.07;;;2.50;;
1725;SDS011;41776;48.260;8.928;2024-01-16T11:12:15;4.57;;;1.90;;
1725;SDS011;41776;48.260;8.928;2024-01-16T11:14:44;4.67;;;2.13;;
1725;SDS011;41776;48.260;8.928;2024-01-16T11:17:15;4.17;;;2.20;;
1725;SDS011;41776;48.260;8.928;2024-01-16T11:19:44;6.80;;;2.30;;
1725;SDS011;41776;48.260;8.928;2024-01-16T11:22:12;3.77;;;2.17;;
1725;SDS011;41776;48.260;8.928;2024-01-16T11:24:42;6.63;;;2.27;;
1725;SDS011;41776;48.260;8.928;2024-01-16T11:27:21;4.43;;;2.10;;
1725;SDS011;41776;48.260;8.928;2024-01-16T11:29:49;3.47;;;2.00;;
1725;SDS011;41776;48.260;8.928;2024-01-16T11:32:32;4.97;;;2.10;;
1725;SDS011;41776;48.260;8.928;2024-01-16T11:34:59;4.40;;;2.50;;
1725;SDS011;41776;48.260;8.928;2024-01-16T11:37:26;6.03;;;2.40;;
1725;SDS011;41776;48.260;8.928;2024-01-16T11:42:53;15.27;;;5.67;;
1725;SDS011;41776;48.260;8.928;2024-01-16T11:48:19;4.53;;;2.60;;
1725;SDS011;41776;48.260;8.928;2024-01-16T11:50:48;4.37;;;2.30;;
1725;SDS011;41776;48.260;8.928;2024-01-16T11:53:34;5.67;;;2.90;;
1725;SDS011;41776;48.260;8.928;2024-01-16T11:56:11;9.07;;;3.03;;
1725;SDS011;41776;48.260;8.928;2024-01-16T11:58:54;5.23;;;2.67;;
1725;SDS011;41776;48.260;8.928;2024-01-16T12:01:27;6.53;;;2.93;;
1725;SDS011;41776;48.260;8.928;2024-01-16T12:04:01;4.43;;;2.63;;
1725;SDS011;41776;48.260;8.928;2024-01-16T12:06:28;5.57;;;2.97;;
1725;SDS011;41776;48.260;8.928;2024-01-16T12:09:10;6.30;;;2.57;;
1725;SDS011;41776;48.260;8.928;2024-01-16T12:11:38;7.50;;;2.30;;
1725;SDS011;41776;48.260;8.928;2024-01-16T12:14:05;4.20;;;2.43;;
1725;SDS011;41776;48.260;8.928;2024-01-16T12:16:32;5.97;;;3.03;;
1725;SDS011;41776;48.260;8.928;2024-01-16T12:19:03;8.67;;;3.10;;
1725;SDS011;41776;48.260;8.928;2024-01-16T12:23:59;6.67;;;2.77;;
1725;SDS011;41776;48.260;8.928;2024-01-16T12:26:29;7.77;;;2.97;;
1725;SDS011;41776;48.260;8.928;2024-01-16T12:28:58;6.87;;;3.13;;
1725;SDS011;41776;48.260;8.928;2024-01-16T12:31:25;5.20;;;2.70;;
1725;SDS011;41776;48.260;8.928;2024-01-16T12:33:51;6.80;;;2.97;;
1725;SDS011;41776;48.260;8.928;2024-01-16T12:36:18;7.20;;;3.10;;
1725;SDS011;41776;48.260;8.928;2024-01-16T12:38:45;8.77;;;2.90;;
1725;SDS011;41776;48.260;8.928;2024-01-16T12:41:21;7.17;;;3.20;;
1725;SDS011;41776;48.260;8.928;2024-01-16T12:43:50;6.40;;;3.03;;
1725;SDS011;41776;48.260;8.928;2024-01-16T12:46:18;5.13;;;2.83;;
1725;SDS011;41776;48.260;8.928;2024-01-16T12:48:45;6.10;;;3.10;;
1725;SDS011;41776;48.260;8.928;2024-01-16T12:51:16;6.20;;;3.00;;
1725;SDS011;41776;48.260;8.928;2024-01-16T12:53:46;5.70;;;2.70;;
1725;SDS011;41776;48.260;8.928;2024-01-16T12:56:17;5.70;;;2.70;;
1725;SDS011;41776;48.260;8.928;2024-01-16T12:58:45;7.53;;;3.90;;
1725;SDS011;41776;48.260;8.928;2024-01-16T13:03:58;6.13;;;3.07;;
1725;SDS011;41776;48.260;8.928;2024-01-16T13:06:29;5.73;;;3.00;;
1725;SDS011;41776;48.260;8.928;2024-01-16T13:09:03;8.70;;;3.00;;
1725;SDS011;41776;48.260;8.928;2024-01-16T13:11:44;7.13;;;3.07;;
1725;SDS011;41776;48.260;8.928;2024-01-16T13:14:12;7.57;;;2.67;;
1725;SDS011;41776;48.260;8.928;2024-01-16T13:16:47;6.77;;;2.97;;
1725;SDS011;41776;48.260;8.928;2024-01-16T13:19:15;5.27;;;2.80;;
1725;SDS011;41776;48.260;8.928;2024-01-16T13:21:42;6.57;;;2.67;;
1725;SDS011;41776;48.260;8.928;2024-01-16T13:24:09;6.57;;;2.87;;
1725;SDS011;41776;48.260;8.928;2024-01-16T13:26:35;8.50;;;3.57;;
1725;SDS011;41776;48.260;8.928;2024-01-16T13:29:03;7.07;;;3.20;;
1725;SDS011;41776;48.260;8.928;2024-01-16T13:31:31;7.47;;;3.03;;
1725;SDS011;41776;48.260;8.928;2024-01-16T13:34:04;10.50;;;3.63;;
1725;SDS011;41776;48.260;8.928;2024-01-16T13:36:31;6.23;;;3.20;;
1725;SDS011;41776;48.260;8.928;2024-01-16T13:38:58;9.60;;;3.33;;
1725;SDS011;41776;48.260;8.928;2024-01-16T13:41:26;9.63;;;3.53;;
1725;SDS011;41776;48.260;8.928;2024-01-16T13:43:53;9.43;;;3.20;;
1725;SDS011;41776;48.260;8.928;2024-01-16T13:46:20;7.00;;;3.13;;
1725;SDS011;41776;48.260;8.928;2024-01-16T13:48:47;7.03;;;3.30;;
1725;SDS011;41776;48.260;8.928;2024-01-16T13:51:20;8.40;;;3.50;;
1725;SDS011;41776;48.260;8.928;2024-01-16T13:53:46;8.33;;;3.63;;
1725;SDS011;41776;48.260;8.928;2024-01-16T13:56:13;6.47;;;3.97;;
1725;SDS011;41776;48.260;8.928;2024-01-16T13:58:42;11.00;;;3.90;;
1725;SDS011;41776;48.260;8.928;2024-01-16T14:01:08;7.67;;;4.00;;
1725;SDS011;41776;48.260;8.928;2024-01-16T14:03:35;9.57;;;4.20;;
1725;SDS011;41776;48.260;8.928;2024-01-16T14:06:03;11.00;;;3.83;;
1725;SDS011;41776;48.260;8.928;2024-01-16T14:08:31;10.40;;;4.30;;
1725;SDS011;41776;48.260;8.928;2024-01-16T14:10:57;9.63;;;3.97;;
1725;SDS011;41776;48.260;8.928;2024-01-16T14:13:24;9.77;;;4.57;;
1725;SDS011;41776;48.260;8.928;2024-01-16T14:15:50;8.90;;;4.57;;
1725;SDS011;41776;48.260;8.928;2024-01-16T14:18:17;11.60;;;4.63;;
1725;SDS011;41776;48.260;8.928;2024-01-16T14:20:42;9.77;;;4.90;;
1725;SDS011;41776;48.260;8.928;2024-01-16T14:23:09;9.90;;;4.70;;
1725;SDS011;41776;48.260;8.928;2024-01-16T14:25:40;9.67;;;4.67;;
1725;SDS011;41776;48.260;8.928;2024-01-16T14:28:07;9.30;;;4.33;;
1725;SDS011;41776;48.260;8.928;2024-01-16T14:30:34;10.03;;;4.33;;
1725;SDS011;41776;48.260;8.928;2024-01-16T14:33:01;13.03;;;4.40;;
1725;SDS011;41776;48.260;8.928;2024-01-16T14:35:33;9.20;;;4.57;;
1725;SDS011;41776;48.260;8.928;2024-01-16T14:37:59;10.93;;;5.20;;
1725;SDS011;41776;48.260;8.928;2024-01-16T14:40:26;9.10;;;4.07;;
1725;SDS011;41776;48.260;8.928;2024-01-16T14:42:54;11.50;;;5.07;;
1725;SDS011;41776;48.260;8.928;2024-01-16T14:45:23;10.27;;;4.73;;
1725;SDS011;41776;48.260;8.928;2024-01-16T14:47:52;12.10;;;4.77;;
1725;SDS011;41776;48.260;8.928;2024-01-16T14:50:19;9.80;;;4.57;;
1725;SDS011;41776;48.260;8.928;2024-01-16T14:52:47;11.53;;;4.60;;
1725;SDS011;41776;48.260;8.928;2024-01-16T14:55:14;11.73;;;4.30;;
1725;SDS011;41776;48.260;8.928;2024-01-16T14:57:41;10.17;;;4.27;;
1725;SDS011;41776;48.260;8.928;2024-01-16T15:00:10;10.47;;;4.53;;
1725;SDS011;41776;48.260;8.928;2024-01-16T15:02:46;8.93;;;4.30;;
1725;SDS011;41776;48.260;8.928;2024-01-16T15:05:13;11.30;;;4.77;;
1725;SDS011;41776;48.260;8.928;2024-01-16T15:07:43;10.43;;;4.67;;
1725;SDS011;41776;48.260;8.928;2024-01-16T15:10:10;9.87;;;4.20;;
1725;SDS011;41776;48.260;8.928;2024-01-16T15:12:37;10.03;;;3.93;;
1725;SDS011;41776;48.260;8.928;2024-01-16T15:15:04;9.83;;;4.50;;
1725;SDS011;41776;48.260;8.928;2024-01-16T15:17:34;9.20;;;4.13;;